This is the latest recevied weather packets stored in our database for station/object SR2WXM. If no packets are shown the sender has not sent any weather packets the latest 1 day(s).
| Time | Temp. | Humidity | Pressure | Rain* | Wind** | Luminosity | Snow |
|---|---|---|---|---|---|---|---|
| 1836274676 | 12.78° C | 99% | 1015.9 hPa | 0 mm | 0.45 m/s, 218° | - | - |
| 1778018403 | 10.56° C | 95% | 1005.7 hPa | 0 mm | 2.68 m/s, 33° | - | - |
| 1778017502 | 10.56° C | 94% | 1005.7 hPa | 0 mm | 1.34 m/s, 346° | - | - |
| 1778016603 | 10.56° C | 94% | 1005.7 hPa | 0 mm | 1.34 m/s, 281° | - | - |
| 1778015703 | 10.56° C | 94% | 1005.7 hPa | 0 mm | 1.34 m/s, 334° | - | - |
| 1778014802 | 10.56° C | 92% | 1005.7 hPa | 0 mm | 2.68 m/s, 11° | - | - |
| 1778013902 | 10.56° C | 91% | 1005.7 hPa | 0 mm | 1.79 m/s, 14° | - | - |
| 1778013002 | 11.67° C | 90% | 1005.7 hPa | 0 mm | 1.34 m/s, 40° | - | - |
| 1778012167 | 11.67° C | 89% | 1005.7 hPa | 0 mm | 2.24 m/s, 353° | - | - |
| 1778011203 | 11.67° C | 87% | 1005.7 hPa | 0 mm | 1.34 m/s, 8° | - | - |
| 1778010302 | 11.67° C | 86% | 1006.1 hPa | 1.27 mm | 0.89 m/s, 65° | - | - |
| 1778009401 | 12.78° C | 85% | 1006.1 hPa | 0 mm | 1.34 m/s, 284° | - | - |
| 1778008501 | 12.78° C | 82% | 1006.1 hPa | 0 mm | 1.34 m/s, 199° | - | - |
| 1778007602 | 12.78° C | 80% | 1005.7 hPa | 0 mm | 1.34 m/s, 34° | - | - |
| 1778006703 | 12.78° C | 79% | 1005.7 hPa | 0 mm | 3.58 m/s, 261° | - | - |
| 1778005803 | 12.78° C | 78% | 1005.7 hPa | 0 mm | 1.79 m/s, 328° | - | - |
| 1778004902 | 13.89° C | 77% | 1005.7 hPa | 0 mm | 1.79 m/s, 308° | - | - |
| 1778004002 | 13.89° C | 76% | 1005.7 hPa | 0 mm | 1.34 m/s, 23° | - | - |
| 1778003102 | 13.89° C | 77% | 1005.7 hPa | 0 mm | 1.79 m/s, 352° | - | - |
| 1778002202 | 13.89° C | 75% | 1005.7 hPa | 0 mm | 2.68 m/s, 353° | - | - |
| 1778001303 | 13.89° C | 73% | 1005.7 hPa | 0 mm | 1.34 m/s, 210° | - | - |
| 1778000402 | 15° C | 71% | 1005.7 hPa | 0 mm | 1.79 m/s, 277° | - | - |
| 1777999502 | 15° C | 71% | 1005.7 hPa | 0 mm | 1.34 m/s, 339° | - | - |
| 1777998602 | 15.56° C | 68% | 1005.7 hPa | 0 mm | 3.13 m/s, 332° | - | - |
| 1777997703 | 15.56° C | 67% | 1005.7 hPa | 0 mm | 2.68 m/s, 312° | - | - |
* Rain latest hour (hover to see other rain measurements)
** Current wind speed in m/s (hover to see current wind gust speed)